Arnold, Missouri
Current Conditions -  °F | °C
As of 11:53 PM on Saturday 20 Dec 2014 (Local Time) from KCPS Reporting Station
Overcast Overcast  
Wind Chill:   Ceiling: 2600
Heat Index:   Visibility: 10mi
Dew Point:   Wind: 6mph
Humidity: 76%   Direction: 160°SSE
Pressure: 30.25"   Gusts: NA
Location:  38.42°N, 90.37°W
Report Text: KCPS 210553Z AUTO 16005KT 10SM OVC026 05/01 A3025 RMK AO2 SLP246 T00500011 10056 20044 400610017 56001 TSNO
Loading
Personal Weather Stations






























Interactive Weather Map New forecast layout! Learn more

10-Day Weather Forecast

Advertisements
Track Severe Weather on mobile